createdAt,value
2017-10-25T00:00:34.900Z,85.11
2017-10-25T00:03:01.340Z,85.55
2017-10-25T00:05:27.785Z,85.12
2017-10-25T00:07:54.232Z,85.85
2017-10-25T00:10:20.679Z,85.98
2017-10-25T00:12:47.105Z,85.54
2017-10-25T00:15:13.538Z,84.64
2017-10-25T00:17:39.981Z,85.37
2017-10-25T00:20:06.414Z,85.62
2017-10-25T00:22:32.843Z,85.03
2017-10-25T00:24:59.287Z,85.06
2017-10-25T00:27:25.712Z,85.68
2017-10-25T00:29:52.149Z,84.92
2017-10-25T00:32:18.582Z,85.26
2017-10-25T00:34:45.024Z,84.17
2017-10-25T00:37:11.450Z,84.97
2017-10-25T00:39:37.884Z,85.23
2017-10-25T00:42:04.320Z,85.55
2017-10-25T00:44:30.754Z,84.54
2017-10-25T00:46:57.198Z,84.99
2017-10-25T00:49:23.623Z,84.41
2017-10-25T00:51:50.058Z,83.45
2017-10-25T00:54:16.497Z,84.22
2017-10-25T00:56:42.927Z,83.93
2017-10-25T00:59:09.364Z,84.53
2017-10-25T01:01:35.767Z,84.31
2017-10-25T01:04:02.103Z,85.22
2017-10-25T01:06:28.565Z,84.24
2017-10-25T01:08:55.029Z,84.70
2017-10-25T01:11:22.151Z,84.37
2017-10-25T01:13:48.586Z,84.85
2017-10-25T01:16:14.991Z,84.74
2017-10-25T01:18:41.331Z,84.97
2017-10-25T01:21:07.796Z,85.47
2017-10-25T01:23:34.230Z,85.33
2017-10-25T01:26:00.611Z,85.04
2017-10-25T01:28:27.091Z,84.41
2017-10-25T01:30:53.628Z,84.15
2017-10-25T01:33:20.072Z,84.42
2017-10-25T01:35:46.470Z,84.58
2017-10-25T01:38:12.915Z,84.14
2017-10-25T01:40:40.060Z,84.04
2017-10-25T01:43:06.459Z,85.30
2017-10-25T01:45:32.963Z,85.67
2017-10-25T01:47:59.391Z,85.79
2017-10-25T01:50:25.935Z,84.18
2017-10-25T01:52:52.361Z,84.33
2017-10-25T01:55:18.805Z,85.20
2017-10-25T01:57:45.232Z,84.83
2017-10-25T02:00:11.665Z,84.09
2017-10-25T02:02:38.101Z,83.23
2017-10-25T02:05:04.545Z,83.44
2017-10-25T02:07:30.970Z,83.68
2017-10-25T02:09:57.405Z,83.65
2017-10-25T02:12:23.847Z,84.22
2017-10-25T02:14:50.278Z,84.76
2017-10-25T02:17:16.710Z,84.58
2017-10-25T02:19:43.163Z,84.52
2017-10-25T02:22:09.578Z,84.50
2017-10-25T02:24:36.022Z,85.07
2017-10-25T02:27:03.164Z,83.74
2017-10-25T02:29:29.611Z,83.30
2017-10-25T02:31:56.036Z,83.25
2017-10-25T02:34:22.445Z,83.51
2017-10-25T02:36:48.907Z,84.05
2017-10-25T02:39:15.349Z,84.25
2017-10-25T02:41:41.784Z,83.93
2017-10-25T02:44:08.218Z,84.09
2017-10-25T02:46:34.644Z,84.58
2017-10-25T02:49:01.087Z,83.67
2017-10-25T02:51:27.517Z,83.30
2017-10-25T02:53:53.948Z,83.77
2017-10-25T02:56:20.381Z,83.86
2017-10-25T02:58:46.782Z,84.32
2017-10-25T03:01:13.149Z,83.61
2017-10-25T03:03:39.584Z,83.61
2017-10-25T03:06:06.019Z,83.91
2017-10-25T03:08:32.455Z,84.21
2017-10-25T03:10:58.888Z,83.57
2017-10-25T03:13:25.323Z,84.21
2017-10-25T03:15:51.758Z,83.61
2017-10-25T03:18:18.193Z,83.88
2017-10-25T03:20:44.628Z,84.06
2017-10-25T03:23:11.154Z,84.29
2017-10-25T03:25:37.599Z,84.21
2017-10-25T03:28:04.037Z,84.41
2017-10-25T03:30:30.437Z,84.99
2017-10-25T03:32:56.904Z,84.70
2017-10-25T03:35:24.269Z,84.17
2017-10-25T03:37:50.695Z,83.76
2017-10-25T03:40:17.138Z,83.61
2017-10-25T03:42:43.565Z,83.52
2017-10-25T03:45:10.013Z,83.65
2017-10-25T03:47:36.435Z,83.23
2017-10-25T03:50:02.869Z,84.15
2017-10-25T03:52:30.085Z,84.13
2017-10-25T03:54:56.527Z,84.11
2017-10-25T03:57:22.991Z,84.22
2017-10-25T03:59:49.426Z,84.38
2017-10-25T04:02:15.870Z,84.54
2017-10-25T04:04:42.296Z,84.49
2017-10-25T04:07:08.733Z,83.84
2017-10-25T04:09:35.064Z,84.39
2017-10-25T04:12:01.504Z,84.04
2017-10-25T04:14:27.933Z,83.84
2017-10-25T04:16:54.392Z,82.79
2017-10-25T04:19:20.802Z,82.73
2017-10-25T04:21:47.239Z,83.21
2017-10-25T04:24:13.680Z,83.82
2017-10-25T04:26:40.115Z,83.17
2017-10-25T04:29:06.545Z,83.55
2017-10-25T04:31:33.683Z,83.31
2017-10-25T04:34:00.162Z,83.16
2017-10-25T04:36:26.562Z,83.67
2017-10-25T04:38:53.817Z,83.17
2017-10-25T04:41:20.262Z,82.58
2017-10-25T04:43:46.699Z,83.64
2017-10-25T04:46:13.123Z,83.31
2017-10-25T04:48:39.557Z,83.31
2017-10-25T04:51:05.992Z,83.79
2017-10-25T04:53:32.643Z,83.54
2017-10-25T04:55:59.065Z,83.75
2017-10-25T04:58:25.602Z,82.96
2017-10-25T05:00:52.046Z,83.75
2017-10-25T05:03:18.582Z,83.52
2017-10-25T05:05:45.009Z,83.96
2017-10-25T05:08:11.443Z,83.72
2017-10-25T05:10:37.888Z,83.23
2017-10-25T05:13:04.313Z,83.93
2017-10-25T05:15:30.750Z,84.04
2017-10-25T05:17:57.191Z,83.69
2017-10-25T05:20:23.617Z,84.11
2017-10-25T05:22:50.060Z,83.56
2017-10-25T05:25:16.426Z,83.52
2017-10-25T05:27:42.820Z,83.65
2017-10-25T05:30:09.255Z,82.96
2017-10-25T05:32:35.689Z,83.62
2017-10-25T05:35:02.123Z,83.53
2017-10-25T05:37:28.558Z,83.58
2017-10-25T05:39:55.301Z,83.42
2017-10-25T05:42:21.847Z,83.64
2017-10-25T05:44:48.589Z,84.18
2017-10-25T05:47:16.846Z,83.62
2017-10-25T05:49:43.397Z,84.17
2017-10-25T05:52:10.393Z,83.35
2017-10-25T05:54:36.882Z,83.75
2017-10-25T05:57:04.079Z,83.60
2017-10-25T05:59:30.874Z,84.07
2017-10-25T06:01:57.719Z,84.60
2017-10-25T06:04:24.163Z,84.25
2017-10-25T06:06:50.597Z,84.26
2017-10-25T06:09:17.534Z,84.55
2017-10-25T06:11:44.081Z,83.97
2017-10-25T06:14:10.619Z,83.95
2017-10-25T06:16:37.429Z,83.48
2017-10-25T06:19:03.897Z,83.68
2017-10-25T06:21:30.323Z,83.77
2017-10-25T06:23:57.074Z,84.10
2017-10-25T06:26:23.611Z,83.67
2017-10-25T06:28:50.139Z,83.82
2017-10-25T06:31:16.976Z,82.30
2017-10-25T06:33:43.521Z,82.85
2017-10-25T06:36:10.059Z,83.02
2017-10-25T06:38:36.783Z,82.99
2017-10-25T06:41:03.138Z,82.49
2017-10-25T06:43:29.773Z,82.22
2017-10-25T06:45:56.312Z,82.88
2017-10-25T06:48:22.752Z,82.85
2017-10-25T06:50:49.169Z,82.89
2017-10-25T06:53:16.227Z,82.07
2017-10-25T06:55:43.176Z,82.45
2017-10-25T06:58:09.611Z,81.71
2017-10-25T07:00:36.392Z,82.22
2017-10-25T07:03:03.095Z,82.09
2017-10-25T07:05:30.066Z,81.57
2017-10-25T07:07:56.781Z,81.35
2017-10-25T07:10:23.115Z,81.66
2017-10-25T07:12:49.651Z,80.84
2017-10-25T07:15:16.381Z,81.78
2017-10-25T07:17:42.840Z,81.04
2017-10-25T07:20:09.376Z,80.85
2017-10-25T07:22:35.986Z,80.28
2017-10-25T07:25:02.480Z,81.46
2017-10-25T07:27:28.818Z,80.40
2017-10-25T07:29:55.207Z,81.33
2017-10-25T07:32:24.316Z,81.82
2017-10-25T07:34:57.809Z,81.78
2017-10-25T07:37:24.445Z,81.16
2017-10-25T07:39:51.277Z,80.58
2017-10-25T07:42:17.825Z,80.75
2017-10-25T07:44:44.269Z,80.69
2017-10-25T07:47:11.965Z,80.34
2017-10-25T07:49:38.403Z,80.54
2017-10-25T07:52:06.744Z,80.38
2017-10-25T07:54:37.967Z,79.68
2017-10-25T07:57:04.423Z,80.31
2017-10-25T07:59:30.865Z,79.31
2017-10-25T08:01:57.635Z,79.79
2017-10-25T08:04:32.639Z,80.51
2017-10-25T08:06:59.381Z,80.87
2017-10-25T08:09:26.332Z,80.89
2017-10-25T08:11:56.235Z,79.42
2017-10-25T08:14:22.789Z,79.41
2017-10-25T08:16:49.610Z,79.63
2017-10-25T08:19:16.056Z,79.87
2017-10-25T08:21:42.491Z,77.21
2017-10-25T08:24:09.130Z,78.33
2017-10-25T08:26:35.872Z,77.51
2017-10-25T08:29:02.450Z,77.75
2017-10-25T08:31:30.138Z,77.94
2017-10-25T08:33:56.579Z,78.29
2017-10-25T08:36:22.995Z,79.03
2017-10-25T08:38:49.587Z,79.43
2017-10-25T08:41:16.025Z,78.77
2017-10-25T08:43:42.598Z,79.16
2017-10-25T08:46:09.708Z,79.40
2017-10-25T08:48:36.243Z,79.55
2017-10-25T08:51:02.681Z,77.19
2017-10-25T08:53:29.421Z,77.95
2017-10-25T08:55:56.390Z,77.99
2017-10-25T08:58:22.851Z,78.40
2017-10-25T09:00:49.648Z,78.73
2017-10-25T09:03:16.091Z,78.45
2017-10-25T09:05:42.722Z,77.72
2017-10-25T09:08:09.052Z,77.76
2017-10-25T09:10:35.895Z,78.34
2017-10-25T09:13:02.333Z,78.23
2017-10-25T09:15:28.766Z,78.57
2017-10-25T09:17:55.200Z,78.71
2017-10-25T09:20:21.942Z,79.04
2017-10-25T09:22:48.384Z,77.43
2017-10-25T09:25:14.747Z,77.50
2017-10-25T09:27:41.144Z,77.85
2017-10-25T09:30:07.578Z,78.10
2017-10-25T09:32:34.115Z,76.76
2017-10-25T09:35:01.234Z,77.28
2017-10-25T09:37:27.704Z,77.64
2017-10-25T09:39:54.138Z,77.12
2017-10-25T09:42:21.493Z,77.39
2017-10-25T09:44:49.985Z,76.79
2017-10-25T09:47:16.521Z,76.92
2017-10-25T09:49:43.156Z,76.68
2017-10-25T09:52:09.793Z,77.26
2017-10-25T09:54:36.228Z,77.58
2017-10-25T09:57:03.075Z,78.70
2017-10-25T09:59:29.507Z,79.31
2017-10-25T10:01:55.942Z,79.60
2017-10-25T10:04:22.379Z,79.32
2017-10-25T10:06:49.122Z,79.61
2017-10-25T10:09:15.554Z,78.25
2017-10-25T10:11:41.989Z,78.46
2017-10-25T10:14:08.730Z,77.74
2017-10-25T10:16:35.275Z,78.39
2017-10-25T10:19:01.703Z,79.28
2017-10-25T10:21:28.079Z,79.84
2017-10-25T10:23:54.781Z,78.85
2017-10-25T10:26:21.416Z,77.80
2017-10-25T10:28:47.850Z,78.29
2017-10-25T10:31:14.224Z,79.28
2017-10-25T10:33:40.929Z,79.58
2017-10-25T10:36:07.361Z,79.60
2017-10-25T10:38:33.794Z,78.58
2017-10-25T10:41:00.234Z,79.21
2017-10-25T10:43:26.768Z,79.78
2017-10-25T10:45:53.611Z,79.25
2017-10-25T10:48:20.068Z,79.53
2017-10-25T10:50:46.456Z,79.31
2017-10-25T10:53:12.907Z,79.64
2017-10-25T10:55:39.657Z,78.77
2017-10-25T10:58:06.395Z,78.92
2017-10-25T11:00:32.982Z,78.50
2017-10-25T11:02:59.984Z,78.43
2017-10-25T11:05:26.624Z,77.04
2017-10-25T11:07:54.155Z,77.80
2017-10-25T11:10:21.935Z,78.07
2017-10-25T11:12:48.568Z,77.23
2017-10-25T11:15:15.053Z,77.66
2017-10-25T11:17:41.563Z,76.87
2017-10-25T11:20:08.550Z,76.51
2017-10-25T11:22:35.047Z,75.85
2017-10-25T11:25:01.481Z,76.64
2017-10-25T11:27:28.340Z,77.09
2017-10-25T11:29:54.760Z,76.81
2017-10-25T11:32:21.196Z,77.75
2017-10-25T11:34:48.448Z,76.03
2017-10-25T11:37:15.100Z,75.20
2017-10-25T11:39:41.608Z,75.54
2017-10-25T11:42:08.375Z,75.54
2017-10-25T11:44:35.110Z,76.00
2017-10-25T11:47:01.708Z,75.54
2017-10-25T11:49:28.696Z,75.31
2017-10-25T11:51:55.021Z,74.44
2017-10-25T11:54:21.771Z,75.74
2017-10-25T11:56:48.615Z,73.84
2017-10-25T11:59:15.152Z,73.98
2017-10-25T12:01:41.616Z,74.25
2017-10-25T12:04:08.226Z,74.42
2017-10-25T12:06:34.663Z,72.23
2017-10-25T12:09:01.009Z,72.45
2017-10-25T12:11:29.071Z,72.66
2017-10-25T12:13:56.093Z,72.37
2017-10-25T12:16:22.540Z,72.76
2017-10-25T12:18:48.885Z,73.30
2017-10-25T12:21:15.726Z,73.50
2017-10-25T12:23:42.264Z,72.68
2017-10-25T12:26:08.699Z,72.91
2017-10-25T12:28:35.648Z,71.16
2017-10-25T12:31:02.185Z,72.25
2017-10-25T12:33:29.027Z,72.73
2017-10-25T12:35:56.031Z,71.02
2017-10-25T12:38:24.220Z,71.08
2017-10-25T12:40:50.994Z,71.36
2017-10-25T12:43:17.838Z,71.66
2017-10-25T12:45:44.273Z,71.90
2017-10-25T12:48:10.877Z,71.50
2017-10-25T12:50:37.551Z,70.43
2017-10-25T12:53:04.095Z,72.08
2017-10-25T12:55:30.496Z,71.25
2017-10-25T12:57:57.331Z,71.88
2017-10-25T13:00:23.943Z,71.72
2017-10-25T13:02:50.752Z,72.70
2017-10-25T13:05:17.491Z,72.17
2017-10-25T13:07:44.234Z,72.04
2017-10-25T13:10:10.990Z,73.15
2017-10-25T13:12:38.024Z,72.78
2017-10-25T13:15:04.397Z,73.15
2017-10-25T13:17:30.869Z,74.03
2017-10-25T13:19:57.712Z,74.00
2017-10-25T13:22:24.276Z,73.10
2017-10-25T13:24:50.835Z,73.32
2017-10-25T13:27:17.763Z,73.38
2017-10-25T13:29:44.300Z,73.53
2017-10-25T13:32:10.839Z,73.93
2017-10-25T13:34:37.782Z,73.85
2017-10-25T13:37:04.211Z,74.10
2017-10-25T13:39:30.650Z,74.29
2017-10-25T13:41:57.494Z,74.60
2017-10-25T13:44:24.105Z,74.10
2017-10-25T13:46:50.874Z,75.03
2017-10-25T13:49:17.310Z,73.06
2017-10-25T13:51:44.360Z,74.33
2017-10-25T13:54:11.054Z,74.65
2017-10-25T13:56:37.537Z,74.86
2017-10-25T13:59:04.176Z,74.70
2017-10-25T14:01:30.579Z,74.89
2017-10-25T14:03:57.046Z,74.88
2017-10-25T14:06:23.686Z,75.10
2017-10-25T14:08:50.650Z,74.85
2017-10-25T14:11:17.074Z,74.42
2017-10-25T14:13:44.003Z,75.33
2017-10-25T14:16:11.472Z,75.45
2017-10-25T14:18:37.906Z,75.73
2017-10-25T14:21:04.955Z,75.76
2017-10-25T14:23:31.707Z,75.61
2017-10-25T14:25:58.141Z,76.02
2017-10-25T14:28:24.567Z,76.40
2017-10-25T14:30:51.006Z,75.45
2017-10-25T14:33:17.848Z,76.23
2017-10-25T14:35:44.282Z,75.52
2017-10-25T14:38:10.716Z,76.00
2017-10-25T14:40:37.459Z,75.95
2017-10-25T14:43:03.995Z,75.89
2017-10-25T14:45:30.399Z,76.40
2017-10-25T14:47:57.274Z,76.61
2017-10-25T14:50:23.825Z,76.53
2017-10-25T14:52:50.246Z,76.52
2017-10-25T14:55:16.689Z,76.98
2017-10-25T14:57:43.108Z,76.35
2017-10-25T15:00:10.574Z,76.84
2017-10-25T15:02:37.010Z,76.86
2017-10-25T15:05:03.445Z,77.01
2017-10-25T15:07:30.132Z,77.20
2017-10-25T15:09:57.541Z,77.25
2017-10-25T15:12:23.977Z,77.33
2017-10-25T15:14:50.829Z,77.57
2017-10-25T15:17:17.256Z,77.78
2017-10-25T15:19:43.691Z,77.39
2017-10-25T15:22:10.842Z,77.37
2017-10-25T15:24:37.277Z,77.13
2017-10-25T15:27:04.540Z,77.46
2017-10-25T15:29:30.965Z,77.77
2017-10-25T15:31:57.490Z,77.84
2017-10-25T15:34:23.941Z,77.82
2017-10-25T15:36:50.380Z,77.60
2017-10-25T15:39:16.805Z,77.19
2017-10-25T15:41:43.240Z,77.09
2017-10-25T15:44:10.467Z,77.70
2017-10-25T15:46:36.948Z,77.73
2017-10-25T15:49:03.364Z,77.54
2017-10-25T15:51:29.799Z,77.64
2017-10-25T15:53:56.263Z,77.66
2017-10-25T15:56:22.669Z,77.72
2017-10-25T15:58:49.104Z,77.68
2017-10-25T16:01:16.296Z,77.60
2017-10-25T16:03:42.639Z,77.65
2017-10-25T16:06:09.133Z,77.99
2017-10-25T16:08:35.559Z,78.01
2017-10-25T16:11:02.003Z,77.91
2017-10-25T16:13:28.438Z,77.71
2017-10-25T16:15:54.864Z,77.62
2017-10-25T16:18:22.027Z,77.60
2017-10-25T16:20:48.451Z,77.77
2017-10-25T16:23:14.884Z,77.52
2017-10-25T16:25:41.421Z,77.61
2017-10-25T16:28:07.856Z,77.97
2017-10-25T16:30:34.292Z,77.79
2017-10-25T16:33:00.727Z,77.75
2017-10-25T16:35:27.979Z,77.58
2017-10-25T16:37:54.416Z,77.15
2017-10-25T16:40:20.849Z,77.65
2017-10-25T16:42:47.285Z,77.89
2017-10-25T16:45:13.720Z,77.78
2017-10-25T16:47:40.128Z,77.61
2017-10-25T16:50:06.589Z,77.26
2017-10-25T16:52:33.739Z,77.55
2017-10-25T16:55:00.175Z,77.59
2017-10-25T16:57:26.610Z,77.80
2017-10-25T16:59:52.942Z,77.86
2017-10-25T17:02:19.479Z,77.85
2017-10-25T17:04:45.918Z,78.29
2017-10-25T17:07:12.320Z,78.69
2017-10-25T17:09:39.507Z,79.06
2017-10-25T17:12:05.934Z,78.90
2017-10-25T17:14:32.308Z,78.57
2017-10-25T17:16:58.710Z,78.76
2017-10-25T17:19:25.136Z,78.74
2017-10-25T17:21:51.574Z,78.76
2017-10-25T17:24:18.014Z,78.73
2017-10-25T17:26:45.166Z,78.24
2017-10-25T17:29:11.696Z,78.48
2017-10-25T17:31:38.129Z,78.17
2017-10-25T17:34:04.574Z,77.97
2017-10-25T17:36:31.000Z,78.02
2017-10-25T17:38:57.433Z,78.08
2017-10-25T17:41:23.877Z,77.85
2017-10-25T17:43:51.033Z,77.70
2017-10-25T17:46:17.472Z,77.80
2017-10-25T17:48:43.890Z,78.24
2017-10-25T17:51:10.260Z,77.32
2017-10-25T17:53:36.657Z,78.08
2017-10-25T17:56:03.093Z,77.77
2017-10-25T17:58:29.527Z,77.87
2017-10-25T18:00:56.665Z,78.45
2017-10-25T18:03:23.114Z,78.29
2017-10-25T18:05:49.547Z,78.53
2017-10-25T18:08:15.969Z,77.57
2017-10-25T18:10:42.420Z,77.63
2017-10-25T18:13:08.853Z,77.86
2017-10-25T18:15:35.300Z,77.88
2017-10-25T18:18:02.548Z,78.11
2017-10-25T18:20:28.973Z,79.16
2017-10-25T18:22:55.409Z,78.54
2017-10-25T18:25:21.844Z,78.68
2017-10-25T18:27:48.280Z,78.39
2017-10-25T18:30:14.713Z,78.29
2017-10-25T18:32:41.148Z,78.17
2017-10-25T18:35:07.607Z,78.19
2017-10-25T18:37:34.018Z,78.12
2017-10-25T18:40:00.467Z,78.03
2017-10-25T18:42:26.886Z,78.27
2017-10-25T18:44:53.322Z,78.26
2017-10-25T18:47:19.756Z,78.25
2017-10-25T18:49:46.916Z,78.30
2017-10-25T18:52:13.452Z,78.40
2017-10-25T18:54:40.294Z,78.45
2017-10-25T18:57:12.001Z,78.16
2017-10-25T18:59:38.483Z,77.69
2017-10-25T19:04:42.003Z,77.81
2017-10-25T19:07:08.446Z,77.86
2017-10-25T19:09:34.883Z,77.75
2017-10-25T19:12:01.308Z,78.05
2017-10-25T19:14:27.745Z,78.47
2017-10-25T19:16:54.176Z,79.22
2017-10-25T19:19:20.612Z,78.48
2017-10-25T19:21:47.054Z,78.23
2017-10-25T19:24:13.480Z,78.32
2017-10-25T19:26:39.932Z,78.18
2017-10-25T19:29:06.308Z,77.76
2017-10-25T19:31:32.791Z,77.73
2017-10-25T19:33:59.936Z,77.77
2017-10-25T19:36:26.380Z,77.88
2017-10-25T19:38:52.806Z,77.59
2017-10-25T19:41:19.249Z,77.84
2017-10-25T19:43:45.671Z,78.42
2017-10-25T19:46:12.111Z,78.32
2017-10-25T19:48:38.555Z,78.34
2017-10-25T19:51:05.807Z,78.34
2017-10-25T19:53:32.243Z,78.28
2017-10-25T19:55:58.669Z,78.46
2017-10-25T19:58:25.111Z,78.60
2017-10-25T20:00:51.640Z,78.55
2017-10-25T20:03:18.075Z,78.12
2017-10-25T20:05:44.633Z,78.07
2017-10-25T20:08:11.865Z,77.94
2017-10-25T20:10:38.240Z,78.19
2017-10-25T20:13:04.632Z,77.65
2017-10-25T20:15:31.076Z,77.75
2017-10-25T20:17:57.510Z,78.07
2017-10-25T20:20:23.937Z,78.33
2017-10-25T20:22:50.372Z,78.62
2017-10-25T20:25:17.522Z,78.71
2017-10-25T20:27:43.958Z,78.34
2017-10-25T20:30:10.392Z,77.30
2017-10-25T20:32:36.827Z,77.02
2017-10-25T20:35:03.261Z,76.96
2017-10-25T20:37:29.705Z,76.74
2017-10-25T20:39:56.131Z,76.66
2017-10-25T20:42:23.487Z,76.96
2017-10-25T20:44:49.923Z,76.71
2017-10-25T20:47:16.358Z,77.13
2017-10-25T20:49:42.800Z,77.21
2017-10-25T20:52:09.228Z,77.40
2017-10-25T20:54:35.667Z,77.81
2017-10-25T20:57:02.099Z,77.92
2017-10-25T20:59:29.247Z,78.02
2017-10-25T21:01:55.691Z,77.50
2017-10-25T21:04:22.117Z,77.16
2017-10-25T21:06:48.560Z,77.32
2017-10-25T21:09:14.986Z,77.45
2017-10-25T21:11:41.430Z,76.44
2017-10-25T21:14:07.857Z,75.90
2017-10-25T21:16:34.905Z,75.52
2017-10-25T21:19:01.443Z,75.47
2017-10-25T21:21:27.877Z,74.94
2017-10-25T21:23:54.321Z,75.32
2017-10-25T21:26:20.763Z,74.94
2017-10-25T21:28:47.181Z,75.28
2017-10-25T21:31:13.719Z,75.38
2017-10-25T21:33:40.775Z,75.76
2017-10-25T21:36:07.202Z,76.14
2017-10-25T21:38:33.637Z,76.27
2017-10-25T21:41:00.110Z,76.74
2017-10-25T21:43:26.587Z,75.72
2017-10-25T21:45:53.043Z,76.25
2017-10-25T21:48:19.539Z,76.71
2017-10-25T21:50:46.707Z,76.76
2017-10-25T21:53:13.169Z,76.93
2017-10-25T21:55:39.617Z,76.66
2017-10-25T21:58:06.036Z,75.33
2017-10-25T22:00:32.479Z,75.72
2017-10-25T22:02:58.914Z,76.09
2017-10-25T22:05:25.442Z,76.51
2017-10-25T22:07:52.595Z,76.41
2017-10-25T22:10:19.037Z,76.30
2017-10-25T22:12:45.472Z,76.26
2017-10-25T22:15:11.908Z,76.03
2017-10-25T22:17:38.321Z,75.89
2017-10-25T22:20:04.774Z,76.14
2017-10-25T22:22:31.177Z,76.35
2017-10-25T22:24:58.355Z,76.99
2017-10-25T22:27:24.790Z,77.62
2017-10-25T22:29:51.226Z,77.17
2017-10-25T22:32:17.772Z,77.79
2017-10-25T22:34:44.197Z,78.06
2017-10-25T22:37:10.630Z,78.50
2017-10-25T22:39:37.066Z,78.75
2017-10-25T22:42:04.227Z,78.98
2017-10-25T22:44:30.652Z,78.89
2017-10-25T22:46:57.087Z,79.03
2017-10-25T22:49:23.520Z,79.21
2017-10-25T22:51:49.959Z,79.26
2017-10-25T22:54:16.380Z,79.39
2017-10-25T22:56:42.829Z,79.50
2017-10-25T22:59:10.081Z,79.43
2017-10-25T23:01:36.515Z,79.24
2017-10-25T23:04:02.949Z,78.88
2017-10-25T23:06:29.392Z,78.83
2017-10-25T23:08:55.818Z,78.94
2017-10-25T23:11:22.196Z,79.01
2017-10-25T23:13:48.695Z,79.46
2017-10-25T23:16:15.839Z,80.13
2017-10-25T23:18:42.244Z,80.56
2017-10-25T23:21:08.704Z,80.45
2017-10-25T23:23:35.148Z,80.43
2017-10-25T23:26:01.623Z,80.48
2017-10-25T23:28:28.012Z,80.64
2017-10-25T23:30:54.456Z,80.77
2017-10-25T23:33:21.604Z,80.91
2017-10-25T23:35:48.060Z,81.28
2017-10-25T23:38:14.477Z,81.64
2017-10-25T23:40:40.905Z,82.15
2017-10-25T23:43:07.337Z,82.46
2017-10-25T23:45:33.772Z,82.55
2017-10-25T23:48:00.208Z,82.61
2017-10-25T23:50:27.360Z,82.17
2017-10-25T23:52:53.793Z,81.88
2017-10-25T23:55:20.228Z,81.83
2017-10-25T23:57:46.664Z,82.09
